Terminal Aerodrome Forecast
Issued by NWS

Home | Current Version | Previous Version | Text Only | Print | Product List | Glossary On
Versions: 1 2 3 4 5 6 7 8 9 10 11 12 13 14 15 16 17
000
FTAK31 PAJN 192300
TAFAPG
TAF
PAPG 192325Z 2000/2024 VRB05KT P6SM -SHRA SCT020 BKN035 OVC050
     FM200700 10007KT 6SM -RA BR SCT015 OVC035
     FM201200 12010G18KT 4SM RA BR BKN015 OVC025
     FM202000 14006KT 5SM -RA BR BKN015 OVC025
      AMD LTD TO CLD VIS AND WIND 2006/2015=

USA.gov is the U.S. government's official web portal to all federal, state and local government web resources and services.